»·PEaware :: N969DA 7S3-KBFI

N969DA :: 7S3-KBFI

FLIGHT INFORMATION

Flight Status: Arrived
Operator: Privately registered:
United States
More flights under this callsign
Pilot: Anonymous 20880 (20880)
Aircraft: Unknown
(DA62)
More flights by this aircraft type
Origin: 7S3 Stark's Twin Oaks
United States
Destination: KBFI Boeing Field/King Co Intl
United States
More flights between these airports :: More routes between these airports
Route: ENDZZ V495 SEA
File this flight plan on PilotEdge
Remarks:
Altitude:
(Current/Filed)
10,000ft
Speed:
(Current/Filed)
140kts
Departed: 04-Jan-19 09:47 PM
Arrived: 04-Jan-19 10:53 PM
Distance/Time
Traveled:
129nm/1:06
Distance/Time
To Go:
Arrived

Flight Plot

Page will automatically refresh every two minutes.

Flight plan parsing failed; only flown route is shown


Map Options




Map Legend


Flown Route
Filed Route
Departure Airport
Arrival Airport
Navaid (VOR, NDB)
Fix

Horizontal Profiles

Position Reports

Time Latitude Longitude Heading Altitude Ground
Speed
04-Jan-19 21:30 45.429661 -122.940366 228 153ft 0kts
04-Jan-19 21:31 45.429661 -122.940366 228 153ft 0kts
04-Jan-19 21:32 45.429661 -122.940366 228 153ft 0kts
04-Jan-19 21:33 45.429661 -122.940366 228 153ft 0kts
04-Jan-19 21:34 45.429661 -122.940366 228 153ft 0kts
04-Jan-19 21:35 45.429661 -122.940366 228 153ft 0kts
04-Jan-19 21:36 45.429661 -122.940366 228 153ft 0kts
04-Jan-19 21:37 45.429661 -122.940366 228 153ft 0kts
04-Jan-19 21:38 45.429661 -122.940366 228 153ft 0kts
04-Jan-19 21:39 45.429661 -122.940366 228 153ft 0kts
04-Jan-19 21:40 45.430095 -122.940120 35 154ft 7kts
04-Jan-19 21:41 45.431079 -122.939363 321 157ft 0kts
04-Jan-19 21:42 45.431079 -122.939363 321 157ft 0kts
04-Jan-19 21:43 45.431079 -122.939363 321 157ft 0kts
04-Jan-19 21:44 45.431079 -122.939363 321 157ft 0kts
04-Jan-19 21:45 45.431079 -122.939363 321 157ft 0kts
04-Jan-19 21:46 45.425830 -122.944902 215 210ft 87kts
04-Jan-19 21:47 45.420073 -122.926415 44 1613ft 88kts
04-Jan-19 21:48 45.440449 -122.898991 37 2686ft 112kts
04-Jan-19 21:49 45.465177 -122.870441 35 3552ft 124kts
04-Jan-19 21:50 45.494154 -122.841026 31 4334ft 131kts
04-Jan-19 21:51 45.524356 -122.811421 30 5133ft 133kts
04-Jan-19 21:52 45.554923 -122.781485 29 5929ft 135kts
04-Jan-19 21:53 45.585743 -122.751256 28 6714ft 137kts
04-Jan-19 21:54 45.615469 -122.722075 28 7465ft 140kts
04-Jan-19 21:55 45.645182 -122.692871 28 8201ft 144kts
04-Jan-19 21:56 45.676994 -122.661560 28 8965ft 149kts
04-Jan-19 21:57 45.710761 -122.628268 29 9750ft 154kts
04-Jan-19 21:58 45.747820 -122.592547 13 10002ft 169kts
04-Jan-19 21:59 45.792903 -122.584321 358 10011ft 165kts
04-Jan-19 22:00 45.838469 -122.576953 358 10011ft 165kts
04-Jan-19 22:01 45.883838 -122.569648 358 10011ft 166kts
04-Jan-19 22:02 45.929398 -122.562246 358 10011ft 165kts
04-Jan-19 22:03 45.974744 -122.554857 359 10014ft 166kts
04-Jan-19 22:05 46.066105 -122.539921 359 10019ft 167kts
04-Jan-19 22:05 46.066105 -122.539921 359 10019ft 167kts
04-Jan-19 22:06 46.109813 -122.532751 359 10019ft 167kts
04-Jan-19 22:07 46.155180 -122.525299 359 10018ft 167kts
04-Jan-19 22:08 46.200734 -122.517807 359 10019ft 167kts
04-Jan-19 22:09 46.246377 -122.510287 359 10019ft 167kts
04-Jan-19 22:10 46.284676 -122.503968 359 10010ft 167kts
04-Jan-19 22:11 46.323660 -122.497526 359 10010ft 167kts
04-Jan-19 22:12 46.362662 -122.491072 359 10010ft 167kts
04-Jan-19 22:13 46.399163 -122.485024 359 10010ft 167kts
04-Jan-19 22:14 46.439765 -122.478287 359 10011ft 167kts
04-Jan-19 22:15 46.484126 -122.470914 359 10012ft 167kts
04-Jan-19 22:16 46.528078 -122.463597 359 10014ft 167kts
04-Jan-19 22:17 46.570898 -122.456457 359 10015ft 167kts
04-Jan-19 22:18 46.613996 -122.449261 359 10014ft 167kts
04-Jan-19 22:19 46.658097 -122.441883 359 10012ft 167kts
04-Jan-19 22:20 46.698900 -122.435047 359 10011ft 167kts
04-Jan-19 22:21 46.737406 -122.428586 359 10010ft 167kts
04-Jan-19 22:22 46.774942 -122.422278 359 10011ft 167kts
04-Jan-19 22:23 46.811090 -122.416196 359 10011ft 167kts
04-Jan-19 22:24 46.849907 -122.409656 359 10012ft 167kts
04-Jan-19 22:25 46.887337 -122.403337 359 10012ft 167kts
04-Jan-19 22:26 46.925648 -122.396830 358 9989ft 166kts
04-Jan-19 22:27 46.962960 -122.390849 5 9990ft 164kts
04-Jan-19 22:28 47.006702 -122.383136 3 10000ft 178kts
04-Jan-19 22:29 47.047595 -122.376212 356 9999ft 180kts
04-Jan-19 22:30 47.087830 -122.384543 344 10003ft 178kts
04-Jan-19 22:31 47.123443 -122.392607 344 9998ft 177kts
04-Jan-19 22:32 47.163466 -122.401549 344 9999ft 177kts
04-Jan-19 22:33 47.203870 -122.410639 344 9736ft 180kts
04-Jan-19 22:34 47.251293 -122.423009 344 8780ft 182kts
04-Jan-19 22:35 47.298938 -122.437713 344 7798ft 178kts
04-Jan-19 22:36 47.344262 -122.453768 344 6841ft 175kts
04-Jan-19 22:37 47.390227 -122.472052 344 6008ft 163kts
04-Jan-19 22:38 47.432098 -122.490394 344 5154ft 153kts
04-Jan-19 22:39 47.471517 -122.508520 344 4159ft 143kts
04-Jan-19 22:40 47.508170 -122.524210 344 3149ft 135kts
04-Jan-19 22:41 47.543803 -122.539082 344 2998ft 130kts
04-Jan-19 22:42 47.578951 -122.553580 344 2999ft 131kts
04-Jan-19 22:43 47.614213 -122.568007 344 2999ft 132kts
04-Jan-19 22:44 47.642900 -122.551866 64 3000ft 132kts
04-Jan-19 22:45 47.657329 -122.501664 65 2999ft 132kts
04-Jan-19 22:46 47.672333 -122.451958 65 2999ft 131kts
04-Jan-19 22:48 47.658934 -122.409850 149 2597ft 142kts
04-Jan-19 22:49 47.623241 -122.382671 149 1966ft 154kts
04-Jan-19 22:50 47.586242 -122.350592 151 1094ft 135kts
04-Jan-19 22:51 47.561030 -122.328541 148 500ft 97kts
04-Jan-19 22:52 47.538467 -122.309632 147 17ft 71kts
04-Jan-19 22:53 47.533905 -122.304705 93 17ft 0kts
04-Jan-19 22:54 47.533720 -122.302654 110 19ft 4kts
04-Jan-19 22:55 47.533323 -122.301237 291 21ft 0kts
04-Jan-19 22:56 47.533323 -122.301237 291 21ft 0kts
04-Jan-19 22:57 47.533323 -122.301237 291 21ft 0kts
04-Jan-19 22:58 47.533323 -122.301237 291 21ft 0kts
04-Jan-19 22:59 47.533323 -122.301237 291 21ft 0kts
04-Jan-19 23:00 47.533323 -122.301237 291 21ft 0kts
04-Jan-19 23:01 47.533323 -122.301237 291 21ft 0kts

Navigation Log

Ident Type
Flight plan parsing failed, navigation log unavailable